sensor_id;sensor_type;location;lat;lon;timestamp;P1;durP1;ratioP1;P2;durP2;ratioP2
19505;SDS011;9894;50.852;-0.140;2023-07-20T00:01:45;7.40;;;6.90;;
19505;SDS011;9894;50.852;-0.140;2023-07-20T00:04:12;6.70;;;6.30;;
19505;SDS011;9894;50.852;-0.140;2023-07-20T00:06:40;6.90;;;6.50;;
19505;SDS011;9894;50.852;-0.140;2023-07-20T00:09:06;7.43;;;6.93;;
19505;SDS011;9894;50.852;-0.140;2023-07-20T00:11:35;6.32;;;5.93;;
19505;SDS011;9894;50.852;-0.140;2023-07-20T00:14:02;6.20;;;5.80;;
19505;SDS011;9894;50.852;-0.140;2023-07-20T00:16:28;5.53;;;5.22;;
19505;SDS011;9894;50.852;-0.140;2023-07-20T00:18:55;5.30;;;5.00;;
19505;SDS011;9894;50.852;-0.140;2023-07-20T00:21:21;5.60;;;5.30;;
19505;SDS011;9894;50.852;-0.140;2023-07-20T00:23:48;5.70;;;5.40;;
19505;SDS011;9894;50.852;-0.140;2023-07-20T00:26:14;5.53;;;5.22;;
19505;SDS011;9894;50.852;-0.140;2023-07-20T00:28:41;5.00;;;4.70;;
19505;SDS011;9894;50.852;-0.140;2023-07-20T00:31:07;5.00;;;4.70;;
19505;SDS011;9894;50.852;-0.140;2023-07-20T00:33:34;5.00;;;4.70;;
19505;SDS011;9894;50.852;-0.140;2023-07-20T00:36:00;4.78;;;4.47;;
19505;SDS011;9894;50.852;-0.140;2023-07-20T00:38:27;4.90;;;4.60;;
19505;SDS011;9894;50.852;-0.140;2023-07-20T00:40:53;4.00;;;3.80;;
19505;SDS011;9894;50.852;-0.140;2023-07-20T00:43:20;4.03;;;3.83;;
19505;SDS011;9894;50.852;-0.140;2023-07-20T00:45:46;4.00;;;3.80;;
19505;SDS011;9894;50.852;-0.140;2023-07-20T00:48:12;3.92;;;3.72;;
19505;SDS011;9894;50.852;-0.140;2023-07-20T00:50:40;4.10;;;3.90;;
19505;SDS011;9894;50.852;-0.140;2023-07-20T00:53:06;4.30;;;4.10;;
19505;SDS011;9894;50.852;-0.140;2023-07-20T00:55:33;4.20;;;4.00;;
19505;SDS011;9894;50.852;-0.140;2023-07-20T00:58:00;3.80;;;3.60;;
19505;SDS011;9894;50.852;-0.140;2023-07-20T01:00:26;4.20;;;4.00;;
19505;SDS011;9894;50.852;-0.140;2023-07-20T01:02:53;3.65;;;3.45;;
19505;SDS011;9894;50.852;-0.140;2023-07-20T01:05:19;3.80;;;3.60;;
19505;SDS011;9894;50.852;-0.140;2023-07-20T01:07:50;3.70;;;3.50;;
19505;SDS011;9894;50.852;-0.140;2023-07-20T01:10:40;3.10;;;3.00;;
19505;SDS011;9894;50.852;-0.140;2023-07-20T01:13:06;3.00;;;2.90;;
19505;SDS011;9894;50.852;-0.140;2023-07-20T01:15:36;2.70;;;2.60;;
19505;SDS011;9894;50.852;-0.140;2023-07-20T01:18:02;2.60;;;2.50;;
19505;SDS011;9894;50.852;-0.140;2023-07-20T01:20:30;2.30;;;2.20;;
19505;SDS011;9894;50.852;-0.140;2023-07-20T01:23:11;2.25;;;2.15;;
19505;SDS011;9894;50.852;-0.140;2023-07-20T01:33:44;2.28;;;2.17;;
19505;SDS011;9894;50.852;-0.140;2023-07-20T01:36:12;2.10;;;2.00;;
19505;SDS011;9894;50.852;-0.140;2023-07-20T01:38:39;2.00;;;1.90;;
19505;SDS011;9894;50.852;-0.140;2023-07-20T01:41:06;2.15;;;2.05;;
19505;SDS011;9894;50.852;-0.140;2023-07-20T01:43:32;2.47;;;2.38;;
19505;SDS011;9894;50.852;-0.140;2023-07-20T01:45:58;2.25;;;2.15;;
19505;SDS011;9894;50.852;-0.140;2023-07-20T01:48:24;2.00;;;1.90;;
19505;SDS011;9894;50.852;-0.140;2023-07-20T01:50:51;1.80;;;1.80;;
19505;SDS011;9894;50.852;-0.140;2023-07-20T01:53:17;1.70;;;1.70;;
19505;SDS011;9894;50.852;-0.140;2023-07-20T01:55:43;1.80;;;1.80;;
19505;SDS011;9894;50.852;-0.140;2023-07-20T01:58:09;1.80;;;1.80;;
19505;SDS011;9894;50.852;-0.140;2023-07-20T02:00:39;1.60;;;1.60;;
19505;SDS011;9894;50.852;-0.140;2023-07-20T02:03:05;1.80;;;1.80;;
19505;SDS011;9894;50.852;-0.140;2023-07-20T02:05:31;1.70;;;1.70;;
19505;SDS011;9894;50.852;-0.140;2023-07-20T02:07:58;1.55;;;1.55;;
19505;SDS011;9894;50.852;-0.140;2023-07-20T02:10:24;2.17;;;2.08;;
19505;SDS011;9894;50.852;-0.140;2023-07-20T02:12:50;1.67;;;1.67;;
19505;SDS011;9894;50.852;-0.140;2023-07-20T02:15:16;1.63;;;1.63;;
19505;SDS011;9894;50.852;-0.140;2023-07-20T02:17:44;1.50;;;1.50;;
19505;SDS011;9894;50.852;-0.140;2023-07-20T02:20:11;1.60;;;1.60;;
19505;SDS011;9894;50.852;-0.140;2023-07-20T02:22:37;1.70;;;1.70;;
19505;SDS011;9894;50.852;-0.140;2023-07-20T02:25:06;1.70;;;1.70;;
19505;SDS011;9894;50.852;-0.140;2023-07-20T02:27:34;1.70;;;1.70;;
19505;SDS011;9894;50.852;-0.140;2023-07-20T02:30:00;1.60;;;1.60;;
19505;SDS011;9894;50.852;-0.140;2023-07-20T02:32:27;1.60;;;1.60;;
19505;SDS011;9894;50.852;-0.140;2023-07-20T02:34:54;1.60;;;1.60;;
19505;SDS011;9894;50.852;-0.140;2023-07-20T02:37:20;1.67;;;1.67;;
19505;SDS011;9894;50.852;-0.140;2023-07-20T02:39:46;1.70;;;1.70;;
19505;SDS011;9894;50.852;-0.140;2023-07-20T02:42:13;1.75;;;1.75;;
19505;SDS011;9894;50.852;-0.140;2023-07-20T02:44:39;1.50;;;1.50;;
19505;SDS011;9894;50.852;-0.140;2023-07-20T02:47:05;1.70;;;1.70;;
19505;SDS011;9894;50.852;-0.140;2023-07-20T02:49:31;1.60;;;1.60;;
19505;SDS011;9894;50.852;-0.140;2023-07-20T02:51:58;1.70;;;1.70;;
19505;SDS011;9894;50.852;-0.140;2023-07-20T02:54:24;1.50;;;1.50;;
19505;SDS011;9894;50.852;-0.140;2023-07-20T02:56:51;1.50;;;1.50;;
19505;SDS011;9894;50.852;-0.140;2023-07-20T02:59:17;1.40;;;1.40;;
19505;SDS011;9894;50.852;-0.140;2023-07-20T03:01:44;1.30;;;1.30;;
19505;SDS011;9894;50.852;-0.140;2023-07-20T03:04:10;1.40;;;1.40;;
19505;SDS011;9894;50.852;-0.140;2023-07-20T03:06:36;1.30;;;1.30;;
19505;SDS011;9894;50.852;-0.140;2023-07-20T03:09:03;1.20;;;1.20;;
19505;SDS011;9894;50.852;-0.140;2023-07-20T03:11:29;1.30;;;1.30;;
19505;SDS011;9894;50.852;-0.140;2023-07-20T03:13:55;1.20;;;1.20;;
19505;SDS011;9894;50.852;-0.140;2023-07-20T03:16:21;1.30;;;1.30;;
19505;SDS011;9894;50.852;-0.140;2023-07-20T03:18:48;1.20;;;1.20;;
19505;SDS011;9894;50.852;-0.140;2023-07-20T03:21:14;1.40;;;1.40;;
19505;SDS011;9894;50.852;-0.140;2023-07-20T03:23:41;1.40;;;1.40;;
19505;SDS011;9894;50.852;-0.140;2023-07-20T03:26:07;1.50;;;1.50;;
19505;SDS011;9894;50.852;-0.140;2023-07-20T03:28:37;1.35;;;1.35;;
19505;SDS011;9894;50.852;-0.140;2023-07-20T03:31:04;1.40;;;1.40;;
19505;SDS011;9894;50.852;-0.140;2023-07-20T03:33:30;1.30;;;1.30;;
19505;SDS011;9894;50.852;-0.140;2023-07-20T03:35:57;1.20;;;1.20;;
19505;SDS011;9894;50.852;-0.140;2023-07-20T03:38:23;1.30;;;1.30;;
19505;SDS011;9894;50.852;-0.140;2023-07-20T03:40:54;1.20;;;1.20;;
19505;SDS011;9894;50.852;-0.140;2023-07-20T03:43:21;1.30;;;1.30;;
19505;SDS011;9894;50.852;-0.140;2023-07-20T03:45:47;1.30;;;1.30;;
19505;SDS011;9894;50.852;-0.140;2023-07-20T03:48:14;1.30;;;1.30;;
19505;SDS011;9894;50.852;-0.140;2023-07-20T03:50:40;1.20;;;1.20;;
19505;SDS011;9894;50.852;-0.140;2023-07-20T03:53:07;1.20;;;1.20;;
19505;SDS011;9894;50.852;-0.140;2023-07-20T03:55:33;1.30;;;1.30;;
19505;SDS011;9894;50.852;-0.140;2023-07-20T03:57:59;1.27;;;1.27;;
19505;SDS011;9894;50.852;-0.140;2023-07-20T04:00:25;1.20;;;1.20;;
19505;SDS011;9894;50.852;-0.140;2023-07-20T04:02:52;1.20;;;1.20;;
19505;SDS011;9894;50.852;-0.140;2023-07-20T04:05:18;1.20;;;1.20;;
19505;SDS011;9894;50.852;-0.140;2023-07-20T04:07:44;1.20;;;1.20;;
19505;SDS011;9894;50.852;-0.140;2023-07-20T04:10:11;1.10;;;1.10;;
19505;SDS011;9894;50.852;-0.140;2023-07-20T04:12:37;1.00;;;1.00;;
19505;SDS011;9894;50.852;-0.140;2023-07-20T04:15:04;1.20;;;1.20;;
19505;SDS011;9894;50.852;-0.140;2023-07-20T04:17:32;1.10;;;1.10;;
19505;SDS011;9894;50.852;-0.140;2023-07-20T04:19:58;1.10;;;1.10;;
19505;SDS011;9894;50.852;-0.140;2023-07-20T04:22:24;1.20;;;1.20;;
19505;SDS011;9894;50.852;-0.140;2023-07-20T04:24:52;1.30;;;1.30;;
19505;SDS011;9894;50.852;-0.140;2023-07-20T04:27:18;1.20;;;1.20;;
19505;SDS011;9894;50.852;-0.140;2023-07-20T04:29:44;1.20;;;1.20;;
19505;SDS011;9894;50.852;-0.140;2023-07-20T04:32:11;1.17;;;1.17;;
19505;SDS011;9894;50.852;-0.140;2023-07-20T04:34:37;1.20;;;1.20;;
19505;SDS011;9894;50.852;-0.140;2023-07-20T04:37:04;1.27;;;1.27;;
19505;SDS011;9894;50.852;-0.140;2023-07-20T04:39:30;1.20;;;1.20;;
19505;SDS011;9894;50.852;-0.140;2023-07-20T04:41:56;1.10;;;1.10;;
19505;SDS011;9894;50.852;-0.140;2023-07-20T04:44:23;1.10;;;1.10;;
19505;SDS011;9894;50.852;-0.140;2023-07-20T04:46:49;1.10;;;1.10;;
19505;SDS011;9894;50.852;-0.140;2023-07-20T04:49:15;1.10;;;1.10;;
19505;SDS011;9894;50.852;-0.140;2023-07-20T04:51:41;1.10;;;1.10;;
19505;SDS011;9894;50.852;-0.140;2023-07-20T04:54:08;1.20;;;1.20;;
19505;SDS011;9894;50.852;-0.140;2023-07-20T04:56:34;1.10;;;1.10;;
19505;SDS011;9894;50.852;-0.140;2023-07-20T04:59:00;1.10;;;1.10;;
19505;SDS011;9894;50.852;-0.140;2023-07-20T05:01:27;1.10;;;1.10;;
19505;SDS011;9894;50.852;-0.140;2023-07-20T05:03:54;1.10;;;1.10;;
19505;SDS011;9894;50.852;-0.140;2023-07-20T05:06:20;1.20;;;1.20;;
19505;SDS011;9894;50.852;-0.140;2023-07-20T05:08:46;1.20;;;1.20;;
19505;SDS011;9894;50.852;-0.140;2023-07-20T05:11:13;1.30;;;1.30;;
19505;SDS011;9894;50.852;-0.140;2023-07-20T05:13:40;1.20;;;1.20;;
19505;SDS011;9894;50.852;-0.140;2023-07-20T05:16:06;1.10;;;1.10;;
19505;SDS011;9894;50.852;-0.140;2023-07-20T05:18:33;1.20;;;1.20;;
19505;SDS011;9894;50.852;-0.140;2023-07-20T05:20:59;1.30;;;1.30;;
19505;SDS011;9894;50.852;-0.140;2023-07-20T05:23:26;1.20;;;1.20;;
19505;SDS011;9894;50.852;-0.140;2023-07-20T05:25:56;1.20;;;1.20;;
19505;SDS011;9894;50.852;-0.140;2023-07-20T05:28:23;1.30;;;1.30;;
19505;SDS011;9894;50.852;-0.140;2023-07-20T05:30:50;1.40;;;1.40;;
19505;SDS011;9894;50.852;-0.140;2023-07-20T05:33:19;1.40;;;1.40;;
19505;SDS011;9894;50.852;-0.140;2023-07-20T05:35:45;1.30;;;1.30;;
19505;SDS011;9894;50.852;-0.140;2023-07-20T05:38:11;1.30;;;1.30;;
19505;SDS011;9894;50.852;-0.140;2023-07-20T05:40:38;1.20;;;1.20;;
19505;SDS011;9894;50.852;-0.140;2023-07-20T05:43:04;1.20;;;1.20;;
19505;SDS011;9894;50.852;-0.140;2023-07-20T05:45:30;1.17;;;1.17;;
19505;SDS011;9894;50.852;-0.140;2023-07-20T05:47:57;1.20;;;1.20;;
19505;SDS011;9894;50.852;-0.140;2023-07-20T05:50:23;1.20;;;1.20;;
19505;SDS011;9894;50.852;-0.140;2023-07-20T05:52:51;1.20;;;1.20;;
19505;SDS011;9894;50.852;-0.140;2023-07-20T05:55:18;1.48;;;1.42;;
19505;SDS011;9894;50.852;-0.140;2023-07-20T05:57:44;1.20;;;1.20;;
19505;SDS011;9894;50.852;-0.140;2023-07-20T06:00:11;1.20;;;1.20;;
19505;SDS011;9894;50.852;-0.140;2023-07-20T06:02:38;1.30;;;1.30;;
19505;SDS011;9894;50.852;-0.140;2023-07-20T06:05:05;1.20;;;1.20;;
19505;SDS011;9894;50.852;-0.140;2023-07-20T06:07:36;1.70;;;1.60;;
19505;SDS011;9894;50.852;-0.140;2023-07-20T06:10:02;1.20;;;1.20;;
19505;SDS011;9894;50.852;-0.140;2023-07-20T06:12:29;1.30;;;1.30;;
19505;SDS011;9894;50.852;-0.140;2023-07-20T06:14:55;1.30;;;1.30;;
19505;SDS011;9894;50.852;-0.140;2023-07-20T06:17:21;1.20;;;1.20;;
19505;SDS011;9894;50.852;-0.140;2023-07-20T06:19:47;1.10;;;1.10;;
19505;SDS011;9894;50.852;-0.140;2023-07-20T06:22:13;1.20;;;1.20;;
19505;SDS011;9894;50.852;-0.140;2023-07-20T06:24:40;1.30;;;1.30;;
19505;SDS011;9894;50.852;-0.140;2023-07-20T06:27:07;1.20;;;1.20;;
19505;SDS011;9894;50.852;-0.140;2023-07-20T06:29:33;1.20;;;1.20;;
19505;SDS011;9894;50.852;-0.140;2023-07-20T06:32:00;1.10;;;1.10;;
19505;SDS011;9894;50.852;-0.140;2023-07-20T06:34:26;1.20;;;1.20;;
19505;SDS011;9894;50.852;-0.140;2023-07-20T06:36:53;1.30;;;1.30;;
19505;SDS011;9894;50.852;-0.140;2023-07-20T06:39:19;1.30;;;1.30;;
19505;SDS011;9894;50.852;-0.140;2023-07-20T06:41:47;1.40;;;1.40;;
19505;SDS011;9894;50.852;-0.140;2023-07-20T06:44:13;1.42;;;1.42;;
19505;SDS011;9894;50.852;-0.140;2023-07-20T06:46:40;1.30;;;1.30;;
19505;SDS011;9894;50.852;-0.140;2023-07-20T06:49:07;1.40;;;1.40;;
19505;SDS011;9894;50.852;-0.140;2023-07-20T06:51:33;1.70;;;1.70;;
19505;SDS011;9894;50.852;-0.140;2023-07-20T06:53:59;1.60;;;1.60;;
19505;SDS011;9894;50.852;-0.140;2023-07-20T06:56:25;1.50;;;1.50;;
19505;SDS011;9894;50.852;-0.140;2023-07-20T06:58:53;1.50;;;1.50;;
19505;SDS011;9894;50.852;-0.140;2023-07-20T07:01:19;7.63;;;6.82;;
19505;SDS011;9894;50.852;-0.140;2023-07-20T07:03:46;1.60;;;1.60;;
19505;SDS011;9894;50.852;-0.140;2023-07-20T07:06:13;1.70;;;1.70;;
19505;SDS011;9894;50.852;-0.140;2023-07-20T07:08:39;1.80;;;1.80;;
19505;SDS011;9894;50.852;-0.140;2023-07-20T07:11:06;1.60;;;1.60;;
19505;SDS011;9894;50.852;-0.140;2023-07-20T07:13:32;2.03;;;1.92;;
19505;SDS011;9894;50.852;-0.140;2023-07-20T07:15:58;1.63;;;1.63;;
19505;SDS011;9894;50.852;-0.140;2023-07-20T07:18:25;1.70;;;1.70;;
19505;SDS011;9894;50.852;-0.140;2023-07-20T07:20:52;2.05;;;1.95;;
19505;SDS011;9894;50.852;-0.140;2023-07-20T07:23:19;2.20;;;2.10;;
19505;SDS011;9894;50.852;-0.140;2023-07-20T07:25:45;2.10;;;1.98;;
19505;SDS011;9894;50.852;-0.140;2023-07-20T07:28:12;1.77;;;1.77;;
19505;SDS011;9894;50.852;-0.140;2023-07-20T07:30:38;1.80;;;1.80;;
19505;SDS011;9894;50.852;-0.140;2023-07-20T07:33:05;2.10;;;2.00;;
19505;SDS011;9894;50.852;-0.140;2023-07-20T07:35:31;2.10;;;2.00;;
19505;SDS011;9894;50.852;-0.140;2023-07-20T07:37:58;2.17;;;2.08;;
19505;SDS011;9894;50.852;-0.140;2023-07-20T07:40:24;2.10;;;2.00;;
19505;SDS011;9894;50.852;-0.140;2023-07-20T07:42:50;2.50;;;2.40;;
19505;SDS011;9894;50.852;-0.140;2023-07-20T07:45:16;2.30;;;2.20;;
19505;SDS011;9894;50.852;-0.140;2023-07-20T07:47:43;2.30;;;2.20;;
19505;SDS011;9894;50.852;-0.140;2023-07-20T07:50:10;2.63;;;2.53;;
19505;SDS011;9894;50.852;-0.140;2023-07-20T07:52:37;2.70;;;2.60;;
19505;SDS011;9894;50.852;-0.140;2023-07-20T07:55:03;2.40;;;2.30;;
19505;SDS011;9894;50.852;-0.140;2023-07-20T07:57:30;2.80;;;2.60;;
19505;SDS011;9894;50.852;-0.140;2023-07-20T07:59:56;2.70;;;2.60;;
19505;SDS011;9894;50.852;-0.140;2023-07-20T08:02:22;2.80;;;2.70;;
19505;SDS011;9894;50.852;-0.140;2023-07-20T08:04:49;3.35;;;3.15;;
19505;SDS011;9894;50.852;-0.140;2023-07-20T08:07:17;3.70;;;3.50;;
19505;SDS011;9894;50.852;-0.140;2023-07-20T08:09:44;3.60;;;3.40;;
19505;SDS011;9894;50.852;-0.140;2023-07-20T08:12:10;3.10;;;3.00;;
19505;SDS011;9894;50.852;-0.140;2023-07-20T08:14:37;4.00;;;3.80;;
19505;SDS011;9894;50.852;-0.140;2023-07-20T08:17:03;4.30;;;4.10;;
19505;SDS011;9894;50.852;-0.140;2023-07-20T08:19:30;4.90;;;4.60;;
19505;SDS011;9894;50.852;-0.140;2023-07-20T08:21:56;6.28;;;5.88;;
19505;SDS011;9894;50.852;-0.140;2023-07-20T08:24:23;6.28;;;5.88;;
19505;SDS011;9894;50.852;-0.140;2023-07-20T08:26:49;7.88;;;7.38;;
19505;SDS011;9894;50.852;-0.140;2023-07-20T08:29:17;9.48;;;8.77;;
19505;SDS011;9894;50.852;-0.140;2023-07-20T08:31:43;11.00;;;10.20;;
19505;SDS011;9894;50.852;-0.140;2023-07-20T08:34:11;13.57;;;12.57;;
19505;SDS011;9894;50.852;-0.140;2023-07-20T08:36:38;14.38;;;13.38;;
19505;SDS011;9894;50.852;-0.140;2023-07-20T08:39:04;18.88;;;17.50;;
19505;SDS011;9894;50.852;-0.140;2023-07-20T08:41:31;21.63;;;20.02;;
19505;SDS011;9894;50.852;-0.140;2023-07-20T08:43:57;25.83;;;23.92;;
19505;SDS011;9894;50.852;-0.140;2023-07-20T08:46:24;27.75;;;25.75;;
19505;SDS011;9894;50.852;-0.140;2023-07-20T08:48:52;30.50;;;28.20;;
19505;SDS011;9894;50.852;-0.140;2023-07-20T08:51:20;33.75;;;31.25;;
19505;SDS011;9894;50.852;-0.140;2023-07-20T08:53:47;35.70;;;32.30;;
19505;SDS011;9894;50.852;-0.140;2023-07-20T08:56:14;39.40;;;36.50;;
19505;SDS011;9894;50.852;-0.140;2023-07-20T08:58:43;37.25;;;34.58;;
19505;SDS011;9894;50.852;-0.140;2023-07-20T09:01:10;40.72;;;37.92;;
19505;SDS011;9894;50.852;-0.140;2023-07-20T09:03:37;38.85;;;36.25;;
19505;SDS011;9894;50.852;-0.140;2023-07-20T09:06:05;36.08;;;33.78;;
19505;SDS011;9894;50.852;-0.140;2023-07-20T09:08:31;32.42;;;30.33;;
19505;SDS011;9894;50.852;-0.140;2023-07-20T09:10:58;34.63;;;32.42;;
19505;SDS011;9894;50.852;-0.140;2023-07-20T09:13:27;30.90;;;28.90;;
19505;SDS011;9894;50.852;-0.140;2023-07-20T09:15:53;29.55;;;27.65;;
19505;SDS011;9894;50.852;-0.140;2023-07-20T09:18:23;28.17;;;26.38;;
19505;SDS011;9894;50.852;-0.140;2023-07-20T09:20:50;27.33;;;25.52;;
19505;SDS011;9894;50.852;-0.140;2023-07-20T09:23:16;18.75;;;17.55;;
19505;SDS011;9894;50.852;-0.140;2023-07-20T09:25:42;17.92;;;16.80;;
19505;SDS011;9894;50.852;-0.140;2023-07-20T09:28:11;16.83;;;15.73;;
19505;SDS011;9894;50.852;-0.140;2023-07-20T09:30:37;13.73;;;12.82;;
19505;SDS011;9894;50.852;-0.140;2023-07-20T09:33:03;9.55;;;8.95;;
19505;SDS011;9894;50.852;-0.140;2023-07-20T09:35:29;9.50;;;8.90;;
19505;SDS011;9894;50.852;-0.140;2023-07-20T09:37:58;9.00;;;8.40;;
19505;SDS011;9894;50.852;-0.140;2023-07-20T09:40:25;9.50;;;8.90;;
19505;SDS011;9894;50.852;-0.140;2023-07-20T09:42:52;9.95;;;9.25;;
19505;SDS011;9894;50.852;-0.140;2023-07-20T09:45:34;9.10;;;8.40;;
19505;SDS011;9894;50.852;-0.140;2023-07-20T09:48:07;9.95;;;9.25;;
19505;SDS011;9894;50.852;-0.140;2023-07-20T09:50:34;10.35;;;9.65;;
19505;SDS011;9894;50.852;-0.140;2023-07-20T09:53:00;9.15;;;8.55;;
19505;SDS011;9894;50.852;-0.140;2023-07-20T09:55:27;8.82;;;8.23;;
19505;SDS011;9894;50.852;-0.140;2023-07-20T09:57:55;8.00;;;7.50;;
19505;SDS011;9894;50.852;-0.140;2023-07-20T10:00:21;7.85;;;7.35;;
19505;SDS011;9894;50.852;-0.140;2023-07-20T10:02:48;7.60;;;7.10;;
19505;SDS011;9894;50.852;-0.140;2023-07-20T10:05:15;8.43;;;7.82;;
19505;SDS011;9894;50.852;-0.140;2023-07-20T10:07:48;7.88;;;7.38;;
19505;SDS011;9894;50.852;-0.140;2023-07-20T10:10:15;7.65;;;7.15;;
19505;SDS011;9894;50.852;-0.140;2023-07-20T10:12:42;8.15;;;7.65;;
19505;SDS011;9894;50.852;-0.140;2023-07-20T10:15:22;7.80;;;7.30;;
19505;SDS011;9894;50.852;-0.140;2023-07-20T10:17:57;7.38;;;6.88;;
19505;SDS011;9894;50.852;-0.140;2023-07-20T10:20:23;6.50;;;6.10;;
19505;SDS011;9894;50.852;-0.140;2023-07-20T10:22:49;6.38;;;5.97;;
19505;SDS011;9894;50.852;-0.140;2023-07-20T10:25:18;6.10;;;5.70;;
19505;SDS011;9894;50.852;-0.140;2023-07-20T10:27:45;7.63;;;7.13;;
19505;SDS011;9894;50.852;-0.140;2023-07-20T10:30:11;8.90;;;8.30;;
19505;SDS011;9894;50.852;-0.140;2023-07-20T10:32:37;7.47;;;6.97;;
19505;SDS011;9894;50.852;-0.140;2023-07-20T10:35:11;7.60;;;7.10;;
19505;SDS011;9894;50.852;-0.140;2023-07-20T10:42:56;10.20;;;9.50;;
19505;SDS011;9894;50.852;-0.140;2023-07-20T10:45:32;8.50;;;7.90;;
19505;SDS011;9894;50.852;-0.140;2023-07-20T10:48:02;9.40;;;8.80;;
19505;SDS011;9894;50.852;-0.140;2023-07-20T10:50:29;8.45;;;7.85;;
19505;SDS011;9894;50.852;-0.140;2023-07-20T10:53:04;7.65;;;7.15;;
19505;SDS011;9894;50.852;-0.140;2023-07-20T10:55:31;7.55;;;7.00;;
19505;SDS011;9894;50.852;-0.140;2023-07-20T10:58:11;7.82;;;7.22;;
19505;SDS011;9894;50.852;-0.140;2023-07-20T11:03:32;7.82;;;7.32;;
19505;SDS011;9894;50.852;-0.140;2023-07-20T11:05:58;7.95;;;7.45;;
19505;SDS011;9894;50.852;-0.140;2023-07-20T11:11:24;6.35;;;5.95;;
19505;SDS011;9894;50.852;-0.140;2023-07-20T11:13:57;5.90;;;5.50;;
19505;SDS011;9894;50.852;-0.140;2023-07-20T11:18:58;6.10;;;5.70;;
19505;SDS011;9894;50.852;-0.140;2023-07-20T11:21:25;5.68;;;5.38;;
19505;SDS011;9894;50.852;-0.140;2023-07-20T11:23:54;7.53;;;5.50;;
19505;SDS011;9894;50.852;-0.140;2023-07-20T11:26:21;6.30;;;5.90;;
19505;SDS011;9894;50.852;-0.140;2023-07-20T11:28:48;5.65;;;5.35;;
19505;SDS011;9894;50.852;-0.140;2023-07-20T11:31:14;6.70;;;6.25;;
19505;SDS011;9894;50.852;-0.140;2023-07-20T11:33:41;6.88;;;6.40;;
19505;SDS011;9894;50.852;-0.140;2023-07-20T11:36:08;6.10;;;5.70;;
19505;SDS011;9894;50.852;-0.140;2023-07-20T11:38:34;5.43;;;5.13;;
19505;SDS011;9894;50.852;-0.140;2023-07-20T11:41:02;6.72;;;6.13;;
19505;SDS011;9894;50.852;-0.140;2023-07-20T11:43:28;6.18;;;5.78;;
19505;SDS011;9894;50.852;-0.140;2023-07-20T11:45:55;6.07;;;5.68;;
19505;SDS011;9894;50.852;-0.140;2023-07-20T11:48:21;5.75;;;5.45;;
19505;SDS011;9894;50.852;-0.140;2023-07-20T11:50:48;6.20;;;5.80;;
19505;SDS011;9894;50.852;-0.140;2023-07-20T11:53:14;6.00;;;5.60;;
19505;SDS011;9894;50.852;-0.140;2023-07-20T11:55:41;6.50;;;6.00;;
19505;SDS011;9894;50.852;-0.140;2023-07-20T11:58:08;5.60;;;5.30;;
19505;SDS011;9894;50.852;-0.140;2023-07-20T12:00:34;5.65;;;5.32;;
19505;SDS011;9894;50.852;-0.140;2023-07-20T12:03:01;6.22;;;5.72;;
19505;SDS011;9894;50.852;-0.140;2023-07-20T12:05:27;5.90;;;5.50;;
19505;SDS011;9894;50.852;-0.140;2023-07-20T12:07:54;5.72;;;5.43;;
19505;SDS011;9894;50.852;-0.140;2023-07-20T12:10:27;5.80;;;5.30;;
19505;SDS011;9894;50.852;-0.140;2023-07-20T12:13:02;5.95;;;5.55;;
19505;SDS011;9894;50.852;-0.140;2023-07-20T12:15:29;5.85;;;5.45;;
19505;SDS011;9894;50.852;-0.140;2023-07-20T12:17:57;5.20;;;4.90;;
19505;SDS011;9894;50.852;-0.140;2023-07-20T12:20:27;5.53;;;5.13;;
19505;SDS011;9894;50.852;-0.140;2023-07-20T12:23:01;5.20;;;4.90;;
19505;SDS011;9894;50.852;-0.140;2023-07-20T12:28:00;5.50;;;5.20;;
19505;SDS011;9894;50.852;-0.140;2023-07-20T12:30:28;7.95;;;6.55;;
19505;SDS011;9894;50.852;-0.140;2023-07-20T12:32:54;5.55;;;5.25;;
19505;SDS011;9894;50.852;-0.140;2023-07-20T12:35:20;5.78;;;5.47;;
19505;SDS011;9894;50.852;-0.140;2023-07-20T12:37:46;5.13;;;4.82;;
19505;SDS011;9894;50.852;-0.140;2023-07-20T12:40:14;5.60;;;5.20;;
19505;SDS011;9894;50.852;-0.140;2023-07-20T12:42:40;5.30;;;5.00;;
19505;SDS011;9894;50.852;-0.140;2023-07-20T12:45:07;5.90;;;5.40;;
19505;SDS011;9894;50.852;-0.140;2023-07-20T12:47:33;4.53;;;4.30;;
19505;SDS011;9894;50.852;-0.140;2023-07-20T12:49:59;5.70;;;5.30;;
19505;SDS011;9894;50.852;-0.140;2023-07-20T12:52:25;6.53;;;6.03;;
19505;SDS011;9894;50.852;-0.140;2023-07-20T12:54:51;5.72;;;5.40;;
19505;SDS011;9894;50.852;-0.140;2023-07-20T12:57:18;5.60;;;5.20;;
19505;SDS011;9894;50.852;-0.140;2023-07-20T12:59:44;9.73;;;7.53;;
19505;SDS011;9894;50.852;-0.140;2023-07-20T13:02:10;5.55;;;5.25;;
19505;SDS011;9894;50.852;-0.140;2023-07-20T13:04:37;5.80;;;5.40;;
19505;SDS011;9894;50.852;-0.140;2023-07-20T13:07:03;6.40;;;6.00;;
19505;SDS011;9894;50.852;-0.140;2023-07-20T13:09:29;6.57;;;6.18;;
19505;SDS011;9894;50.852;-0.140;2023-07-20T13:11:55;6.40;;;5.80;;
19505;SDS011;9894;50.852;-0.140;2023-07-20T13:14:22;6.60;;;6.20;;
19505;SDS011;9894;50.852;-0.140;2023-07-20T13:16:49;6.53;;;5.93;;
19505;SDS011;9894;50.852;-0.140;2023-07-20T13:19:15;6.60;;;6.20;;
19505;SDS011;9894;50.852;-0.140;2023-07-20T13:21:41;7.45;;;6.95;;
19505;SDS011;9894;50.852;-0.140;2023-07-20T13:24:08;7.00;;;6.50;;
19505;SDS011;9894;50.852;-0.140;2023-07-20T13:26:40;7.22;;;6.70;;
19505;SDS011;9894;50.852;-0.140;2023-07-20T13:29:06;8.20;;;7.60;;
19505;SDS011;9894;50.852;-0.140;2023-07-20T13:31:32;25.95;;;7.10;;
19505;SDS011;9894;50.852;-0.140;2023-07-20T13:33:59;6.95;;;6.43;;
19505;SDS011;9894;50.852;-0.140;2023-07-20T13:36:25;6.68;;;6.28;;
19505;SDS011;9894;50.852;-0.140;2023-07-20T13:38:51;6.85;;;6.45;;
19505;SDS011;9894;50.852;-0.140;2023-07-20T13:41:17;6.70;;;6.30;;
19505;SDS011;9894;50.852;-0.140;2023-07-20T13:43:43;6.82;;;6.43;;
19505;SDS011;9894;50.852;-0.140;2023-07-20T13:46:09;6.68;;;6.28;;
19505;SDS011;9894;50.852;-0.140;2023-07-20T13:48:35;7.10;;;6.50;;
19505;SDS011;9894;50.852;-0.140;2023-07-20T13:51:01;6.88;;;6.38;;
19505;SDS011;9894;50.852;-0.140;2023-07-20T13:53:28;6.22;;;5.82;;
19505;SDS011;9894;50.852;-0.140;2023-07-20T13:55:55;6.68;;;6.28;;
19505;SDS011;9894;50.852;-0.140;2023-07-20T13:58:22;6.68;;;6.22;;
19505;SDS011;9894;50.852;-0.140;2023-07-20T14:00:48;6.10;;;5.70;;
19505;SDS011;9894;50.852;-0.140;2023-07-20T14:03:14;5.95;;;5.55;;
19505;SDS011;9894;50.852;-0.140;2023-07-20T14:05:41;6.00;;;5.60;;
19505;SDS011;9894;50.852;-0.140;2023-07-20T14:08:08;6.22;;;5.82;;
19505;SDS011;9894;50.852;-0.140;2023-07-20T14:10:35;6.10;;;5.70;;
19505;SDS011;9894;50.852;-0.140;2023-07-20T14:13:01;5.90;;;5.50;;
19505;SDS011;9894;50.852;-0.140;2023-07-20T14:15:27;5.90;;;5.50;;
19505;SDS011;9894;50.852;-0.140;2023-07-20T14:17:53;6.30;;;5.70;;
19505;SDS011;9894;50.852;-0.140;2023-07-20T14:20:19;6.10;;;5.70;;
19505;SDS011;9894;50.852;-0.140;2023-07-20T14:22:45;6.28;;;5.88;;
19505;SDS011;9894;50.852;-0.140;2023-07-20T14:25:12;6.10;;;5.70;;
19505;SDS011;9894;50.852;-0.140;2023-07-20T14:27:39;6.03;;;5.63;;
19505;SDS011;9894;50.852;-0.140;2023-07-20T14:30:05;6.07;;;5.50;;
19505;SDS011;9894;50.852;-0.140;2023-07-20T14:32:31;5.82;;;5.43;;
19505;SDS011;9894;50.852;-0.140;2023-07-20T14:35:01;5.60;;;5.30;;
19505;SDS011;9894;50.852;-0.140;2023-07-20T14:37:28;5.45;;;5.13;;
19505;SDS011;9894;50.852;-0.140;2023-07-20T14:39:54;5.50;;;5.20;;
19505;SDS011;9894;50.852;-0.140;2023-07-20T14:42:20;5.50;;;5.20;;
19505;SDS011;9894;50.852;-0.140;2023-07-20T14:44:46;5.60;;;5.30;;
19505;SDS011;9894;50.852;-0.140;2023-07-20T14:47:13;5.65;;;5.25;;
19505;SDS011;9894;50.852;-0.140;2023-07-20T14:49:42;5.40;;;5.10;;
19505;SDS011;9894;50.852;-0.140;2023-07-20T14:52:09;6.30;;;5.90;;
19505;SDS011;9894;50.852;-0.140;2023-07-20T14:54:35;5.85;;;5.47;;
19505;SDS011;9894;50.852;-0.140;2023-07-20T14:57:01;5.93;;;5.53;;
19505;SDS011;9894;50.852;-0.140;2023-07-20T14:59:29;5.28;;;4.97;;
19505;SDS011;9894;50.852;-0.140;2023-07-20T15:01:55;5.30;;;5.00;;
19505;SDS011;9894;50.852;-0.140;2023-07-20T15:04:21;5.15;;;4.85;;
19505;SDS011;9894;50.852;-0.140;2023-07-20T15:06:47;5.63;;;5.32;;
19505;SDS011;9894;50.852;-0.140;2023-07-20T15:09:13;5.70;;;5.40;;